Hentiesbaai, Namibia
Current Conditions -  °F | °C
As of 1:00 PM on Wednesday 26 Nov 2014 (Local Time) from FYWE Reporting Station
Broken Clouds Broken Clouds  
Wind Chill: 88°   Ceiling: 4000
Heat Index: 88°   Visibility: 6mi
Dew Point: 37°   Wind: 10mph
Humidity: 17%   Direction: 320°NW
Pressure: 30.09"   Gusts: NA
Location:  22.12°S, 14.28°E
Report Text: FYWE 261200Z 32009KT 9999 FEW040TCU BKN040 31/03 Q1019
Loading
Personal Weather Stations






























Interactive Weather Map New forecast layout! Learn more

10-Day Weather Forecast

Advertisements
Track Severe Weather on mobile